createdAt,value
2017-12-31T00:02:21.759Z,3.30
2017-12-31T00:04:49.204Z,3.73
2017-12-31T00:07:16.670Z,3.30
2017-12-31T00:09:44.134Z,3.13
2017-12-31T00:12:11.603Z,3.20
2017-12-31T00:14:39.071Z,7.83
2017-12-31T00:17:06.536Z,3.50
2017-12-31T00:19:33.986Z,7.70
2017-12-31T00:22:01.443Z,3.00
2017-12-31T00:24:28.921Z,2.97
2017-12-31T00:26:56.382Z,4.03
2017-12-31T00:29:24.009Z,3.07
2017-12-31T00:31:51.582Z,3.03
2017-12-31T00:34:19.028Z,3.37
2017-12-31T00:36:46.482Z,3.43
2017-12-31T00:39:13.940Z,4.07
2017-12-31T00:41:41.402Z,3.30
2017-12-31T00:44:08.862Z,4.70
2017-12-31T00:46:36.345Z,3.10
2017-12-31T00:49:03.812Z,3.33
2017-12-31T00:51:31.259Z,3.47
2017-12-31T00:53:58.743Z,3.83
2017-12-31T00:56:26.221Z,3.33
2017-12-31T00:58:53.659Z,4.17
2017-12-31T01:01:21.115Z,9.23
2017-12-31T01:03:48.558Z,3.10
2017-12-31T01:06:16.017Z,3.40
2017-12-31T01:08:43.490Z,3.60
2017-12-31T01:11:10.958Z,4.50
2017-12-31T01:13:38.415Z,3.27
2017-12-31T01:16:05.886Z,6.43
2017-12-31T01:18:33.333Z,5.00
2017-12-31T01:21:00.795Z,3.40
2017-12-31T01:23:28.247Z,5.17
2017-12-31T01:25:55.704Z,7.90
2017-12-31T01:28:23.162Z,5.50
2017-12-31T01:30:50.621Z,7.40
2017-12-31T01:33:18.089Z,7.37
2017-12-31T01:35:45.550Z,16.80
2017-12-31T01:38:13.025Z,11.70
2017-12-31T01:40:40.496Z,6.40
2017-12-31T01:43:07.956Z,16.60
2017-12-31T01:45:35.407Z,8.83
2017-12-31T01:48:02.868Z,5.30
2017-12-31T01:50:30.374Z,8.03
2017-12-31T01:52:57.831Z,9.43
2017-12-31T01:55:25.294Z,7.93
2017-12-31T01:57:52.783Z,11.13
2017-12-31T02:00:20.255Z,9.50
2017-12-31T02:02:47.719Z,10.50
2017-12-31T02:05:15.203Z,8.10
2017-12-31T02:07:42.652Z,10.00
2017-12-31T02:10:10.100Z,9.90
2017-12-31T02:12:37.568Z,10.23
2017-12-31T02:15:05.016Z,17.20
2017-12-31T02:17:32.560Z,20.60
2017-12-31T02:20:00.020Z,8.77
2017-12-31T02:22:27.534Z,10.60
2017-12-31T02:24:54.979Z,15.30
2017-12-31T02:27:22.459Z,15.27
2017-12-31T02:29:49.911Z,23.83
2017-12-31T02:32:17.356Z,10.47
2017-12-31T02:34:44.834Z,9.33
2017-12-31T02:37:12.303Z,17.10
2017-12-31T02:39:39.770Z,17.50
2017-12-31T02:42:07.251Z,12.43
2017-12-31T02:44:34.704Z,10.57
2017-12-31T02:47:02.176Z,10.53
2017-12-31T02:49:29.641Z,9.20
2017-12-31T02:51:57.088Z,15.40
2017-12-31T02:54:24.559Z,14.70
2017-12-31T02:56:52.044Z,13.03
2017-12-31T02:59:19.495Z,8.63
2017-12-31T03:01:46.950Z,7.83
2017-12-31T03:04:14.426Z,17.00
2017-12-31T03:06:41.891Z,9.93
2017-12-31T03:09:09.348Z,14.83
2017-12-31T03:11:36.820Z,15.53
2017-12-31T03:14:04.266Z,9.53
2017-12-31T03:16:31.738Z,10.07
2017-12-31T03:18:59.232Z,8.33
2017-12-31T03:21:26.707Z,9.60
2017-12-31T03:23:54.182Z,10.27
2017-12-31T03:26:21.667Z,17.13
2017-12-31T03:28:49.133Z,9.53
2017-12-31T03:31:16.595Z,13.43
2017-12-31T03:33:44.078Z,11.53
2017-12-31T03:36:11.530Z,10.33
2017-12-31T03:38:38.998Z,6.70
2017-12-31T03:41:06.781Z,16.37
2017-12-31T03:43:34.340Z,13.20
2017-12-31T03:46:01.789Z,14.33
2017-12-31T03:48:29.243Z,9.67
2017-12-31T03:50:56.704Z,14.63
2017-12-31T03:53:24.169Z,11.83
2017-12-31T03:55:51.628Z,8.30
2017-12-31T03:58:19.082Z,8.13
2017-12-31T04:00:46.567Z,11.03
2017-12-31T04:03:14.048Z,18.70
2017-12-31T04:05:41.604Z,9.53
2017-12-31T04:08:09.067Z,8.93
2017-12-31T04:10:36.535Z,12.13
2017-12-31T04:13:03.983Z,9.30
2017-12-31T04:15:31.443Z,9.70
2017-12-31T04:17:58.971Z,4.20
2017-12-31T04:20:26.442Z,6.40
2017-12-31T04:22:53.896Z,5.80
2017-12-31T04:25:21.388Z,9.97
2017-12-31T04:27:48.869Z,4.50
2017-12-31T04:30:16.356Z,4.63
2017-12-31T04:32:43.868Z,7.03
2017-12-31T04:35:11.321Z,8.33
2017-12-31T04:37:38.777Z,15.80
2017-12-31T04:40:06.258Z,6.00
2017-12-31T04:42:33.705Z,9.30
2017-12-31T04:45:01.185Z,6.00
2017-12-31T04:47:28.671Z,5.10
2017-12-31T04:49:56.135Z,4.60
2017-12-31T04:52:23.594Z,5.43
2017-12-31T04:54:51.060Z,6.30
2017-12-31T04:57:18.522Z,7.17
2017-12-31T04:59:45.969Z,4.53
2017-12-31T05:02:13.447Z,6.73
2017-12-31T05:04:40.896Z,6.07
2017-12-31T05:07:08.344Z,5.03
2017-12-31T05:09:35.847Z,5.87
2017-12-31T05:12:03.299Z,9.27
2017-12-31T05:14:30.757Z,6.80
2017-12-31T05:16:58.236Z,7.20
2017-12-31T05:19:25.699Z,4.83
2017-12-31T05:21:53.147Z,9.43
2017-12-31T05:24:20.632Z,4.23
2017-12-31T05:26:48.121Z,4.27
2017-12-31T05:29:15.556Z,4.63
2017-12-31T05:31:43.043Z,8.10
2017-12-31T05:34:10.506Z,7.20
2017-12-31T05:36:37.953Z,5.60
2017-12-31T05:39:05.416Z,5.00
2017-12-31T05:41:32.859Z,6.90
2017-12-31T05:44:00.327Z,4.70
2017-12-31T05:46:27.802Z,5.80
2017-12-31T05:48:55.248Z,9.33
2017-12-31T05:51:22.719Z,4.90
2017-12-31T05:53:50.202Z,11.50
2017-12-31T05:56:17.670Z,13.40
2017-12-31T05:58:45.164Z,15.83
2017-12-31T06:01:12.632Z,16.60
2017-12-31T06:03:40.096Z,8.03
2017-12-31T06:06:07.558Z,7.03
2017-12-31T06:08:35.031Z,5.93
2017-12-31T06:11:02.479Z,4.30
2017-12-31T06:13:29.924Z,6.60
2017-12-31T06:15:57.402Z,3.97
2017-12-31T06:18:24.848Z,9.67
2017-12-31T06:20:52.293Z,4.53
2017-12-31T06:23:19.771Z,9.20
2017-12-31T06:25:47.220Z,9.13
2017-12-31T06:28:14.668Z,8.80
2017-12-31T06:30:42.133Z,3.80
2017-12-31T06:33:09.590Z,13.63
2017-12-31T06:35:37.046Z,5.67
2017-12-31T06:38:04.522Z,7.93
2017-12-31T06:40:31.989Z,3.90
2017-12-31T06:42:59.450Z,6.60
2017-12-31T06:45:26.905Z,5.70
2017-12-31T06:47:54.357Z,5.23
2017-12-31T06:50:21.817Z,4.00
2017-12-31T06:52:49.280Z,8.93
2017-12-31T06:55:16.724Z,6.17
2017-12-31T06:57:44.189Z,6.47
2017-12-31T07:00:11.649Z,6.93
2017-12-31T07:02:39.115Z,9.43
2017-12-31T07:05:06.556Z,9.50
2017-12-31T07:07:34.024Z,5.40
2017-12-31T07:10:01.477Z,4.30
2017-12-31T07:12:28.926Z,6.27
2017-12-31T07:14:56.388Z,9.90
2017-12-31T07:17:23.832Z,8.70
2017-12-31T07:19:51.303Z,25.93
2017-12-31T07:22:18.792Z,10.33
2017-12-31T07:24:46.232Z,6.80
2017-12-31T07:27:13.675Z,7.27
2017-12-31T07:29:41.132Z,6.83
2017-12-31T07:32:08.594Z,4.40
2017-12-31T07:34:36.041Z,6.97
2017-12-31T07:37:03.535Z,10.73
2017-12-31T07:39:30.988Z,8.63
2017-12-31T07:41:58.456Z,8.70
2017-12-31T07:44:25.942Z,8.10
2017-12-31T07:46:53.392Z,6.77
2017-12-31T07:49:20.836Z,6.43
2017-12-31T07:51:48.314Z,8.10
2017-12-31T07:54:15.757Z,8.53
2017-12-31T07:56:43.219Z,7.90
2017-12-31T07:59:10.694Z,13.93
2017-12-31T08:01:38.167Z,7.77
2017-12-31T08:04:05.630Z,6.70
2017-12-31T08:06:33.111Z,8.93
2017-12-31T08:09:00.581Z,17.03
2017-12-31T08:11:28.032Z,18.33
2017-12-31T08:13:55.510Z,12.10
2017-12-31T08:16:22.968Z,6.80
2017-12-31T08:18:50.428Z,4.83
2017-12-31T08:21:17.876Z,9.60
2017-12-31T08:23:45.355Z,9.10
2017-12-31T08:26:12.800Z,8.53
2017-12-31T08:28:40.244Z,7.90
2017-12-31T08:31:07.733Z,6.77
2017-12-31T08:33:35.203Z,7.60
2017-12-31T08:36:02.652Z,8.80
2017-12-31T08:38:30.111Z,10.10
2017-12-31T08:40:57.596Z,7.73
2017-12-31T08:43:25.053Z,7.73
2017-12-31T08:45:52.521Z,6.73
2017-12-31T08:48:19.968Z,8.23
2017-12-31T08:50:47.434Z,11.80
2017-12-31T08:53:14.910Z,6.80
2017-12-31T08:55:42.365Z,16.03
2017-12-31T08:58:09.842Z,4.53
2017-12-31T09:00:37.314Z,13.90
2017-12-31T09:03:04.792Z,9.10
2017-12-31T09:05:32.279Z,14.73
2017-12-31T09:07:59.759Z,12.80
2017-12-31T09:10:27.231Z,7.10
2017-12-31T09:12:54.710Z,7.80
2017-12-31T09:15:22.171Z,6.13
2017-12-31T09:17:49.642Z,4.60
2017-12-31T09:20:17.167Z,10.43
2017-12-31T09:22:44.640Z,5.43
2017-12-31T09:25:12.107Z,5.13
2017-12-31T09:27:39.587Z,8.87
2017-12-31T09:30:07.033Z,9.53
2017-12-31T09:32:34.488Z,13.47
2017-12-31T09:35:01.962Z,7.47
2017-12-31T09:37:29.413Z,8.80
2017-12-31T09:39:56.883Z,8.07
2017-12-31T09:42:24.371Z,10.90
2017-12-31T09:44:51.816Z,6.13
2017-12-31T09:47:19.271Z,4.70
2017-12-31T09:49:46.754Z,6.40
2017-12-31T09:52:14.200Z,4.37
2017-12-31T09:54:41.644Z,7.83
2017-12-31T09:57:09.109Z,5.93
2017-12-31T09:59:36.557Z,15.33
2017-12-31T10:02:04.004Z,7.40
2017-12-31T10:04:31.478Z,5.07
2017-12-31T10:06:58.943Z,6.53
2017-12-31T10:09:26.406Z,7.60
2017-12-31T10:11:53.883Z,5.13
2017-12-31T10:14:21.323Z,9.77
2017-12-31T10:16:48.768Z,5.13
2017-12-31T10:19:16.232Z,10.63
2017-12-31T10:21:43.696Z,9.37
2017-12-31T10:24:11.144Z,6.00
2017-12-31T10:26:38.614Z,10.97
2017-12-31T10:29:06.083Z,13.70
2017-12-31T10:31:33.546Z,10.07
2017-12-31T10:34:01.019Z,5.60
2017-12-31T10:36:28.483Z,8.60
2017-12-31T10:38:55.928Z,6.03
2017-12-31T10:41:23.407Z,6.43
2017-12-31T10:43:50.899Z,7.63
2017-12-31T10:46:18.347Z,10.60
2017-12-31T10:48:45.804Z,7.03
2017-12-31T10:51:14.552Z,7.40
2017-12-31T10:53:41.995Z,6.70
2017-12-31T10:56:09.460Z,11.30
2017-12-31T10:58:36.916Z,9.97
2017-12-31T11:01:04.360Z,5.40
2017-12-31T11:03:31.848Z,7.67
2017-12-31T11:05:59.300Z,4.73
2017-12-31T11:08:26.745Z,8.47
2017-12-31T11:10:54.217Z,5.80
2017-12-31T11:13:21.682Z,9.30
2017-12-31T11:15:49.163Z,6.63
2017-12-31T11:18:16.619Z,12.33
2017-12-31T11:20:44.068Z,6.47
2017-12-31T11:23:11.526Z,5.50
2017-12-31T11:25:38.976Z,6.70
2017-12-31T11:28:06.420Z,8.20
2017-12-31T11:30:33.907Z,6.80
2017-12-31T11:33:01.363Z,4.23
2017-12-31T11:35:28.817Z,5.43
2017-12-31T11:37:56.308Z,5.50
2017-12-31T11:40:23.755Z,8.83
2017-12-31T11:42:51.204Z,5.47
2017-12-31T11:45:18.683Z,6.17
2017-12-31T11:47:46.138Z,4.40
2017-12-31T11:50:13.606Z,7.13
2017-12-31T11:52:41.086Z,11.07
2017-12-31T11:55:08.528Z,5.93
2017-12-31T11:57:35.975Z,5.70
2017-12-31T12:00:03.437Z,4.07
2017-12-31T12:02:30.896Z,8.03
2017-12-31T12:04:58.359Z,4.53
2017-12-31T12:07:25.824Z,6.17
2017-12-31T12:09:54.106Z,5.17
2017-12-31T12:12:21.547Z,4.80
2017-12-31T12:14:49.004Z,3.80
2017-12-31T12:17:16.466Z,4.60
2017-12-31T12:19:43.930Z,4.63
2017-12-31T12:22:11.402Z,4.53
2017-12-31T12:24:38.863Z,7.60
2017-12-31T12:27:06.315Z,4.27
2017-12-31T12:29:33.768Z,4.30
2017-12-31T12:32:01.207Z,5.37
2017-12-31T12:34:28.652Z,5.90
2017-12-31T12:36:56.116Z,6.70
2017-12-31T12:39:23.595Z,5.10
2017-12-31T12:41:51.070Z,4.40
2017-12-31T12:44:18.542Z,5.30
2017-12-31T12:46:46.000Z,7.10
2017-12-31T12:49:13.470Z,3.90
2017-12-31T12:51:40.961Z,13.83
2017-12-31T12:54:08.404Z,5.30
2017-12-31T12:56:35.855Z,6.13
2017-12-31T12:59:03.336Z,5.43
2017-12-31T13:01:30.788Z,5.77
2017-12-31T13:03:58.234Z,5.00
2017-12-31T13:06:25.706Z,8.83
2017-12-31T13:08:53.168Z,6.40
2017-12-31T13:11:20.674Z,3.90
2017-12-31T13:13:48.131Z,4.33
2017-12-31T13:16:15.606Z,4.90
2017-12-31T13:18:43.073Z,5.13
2017-12-31T13:21:10.551Z,8.43
2017-12-31T13:23:38.008Z,5.83
2017-12-31T13:26:05.476Z,5.10
2017-12-31T13:28:32.923Z,6.97
2017-12-31T13:31:00.390Z,5.90
2017-12-31T13:33:27.874Z,4.23
2017-12-31T13:35:55.327Z,4.13
2017-12-31T13:38:22.790Z,4.33
2017-12-31T13:40:50.566Z,4.17
2017-12-31T13:43:18.219Z,3.90
2017-12-31T13:45:45.854Z,6.47
2017-12-31T13:48:13.383Z,3.87
2017-12-31T13:50:40.940Z,4.43
2017-12-31T13:53:08.931Z,4.00
2017-12-31T13:55:36.426Z,4.93
2017-12-31T13:58:03.881Z,4.03
2017-12-31T14:00:31.340Z,4.10
2017-12-31T14:02:58.823Z,4.40
2017-12-31T14:05:26.291Z,4.80
2017-12-31T14:07:53.860Z,6.13
2017-12-31T14:10:21.326Z,5.67
2017-12-31T14:12:48.791Z,3.77
2017-12-31T14:15:16.252Z,3.90
2017-12-31T14:17:43.728Z,3.97
2017-12-31T14:20:11.197Z,4.40
2017-12-31T14:22:38.674Z,4.37
2017-12-31T14:25:06.158Z,6.00
2017-12-31T14:27:33.616Z,5.03
2017-12-31T14:30:01.084Z,5.07
2017-12-31T14:32:28.536Z,4.40
2017-12-31T14:34:56.015Z,4.00
2017-12-31T14:37:23.470Z,4.33
2017-12-31T14:39:50.972Z,4.10
2017-12-31T14:42:18.419Z,4.63
2017-12-31T14:44:45.869Z,5.67
2017-12-31T14:47:13.320Z,4.17
2017-12-31T14:49:40.815Z,6.50
2017-12-31T14:52:08.276Z,5.40
2017-12-31T14:54:35.730Z,6.80
2017-12-31T14:57:03.196Z,4.70
2017-12-31T14:59:30.646Z,5.40
2017-12-31T15:01:58.109Z,6.40
2017-12-31T15:04:25.590Z,5.23
2017-12-31T15:06:53.032Z,9.67
2017-12-31T15:09:20.481Z,4.57
2017-12-31T15:11:47.940Z,6.40
2017-12-31T15:14:15.403Z,4.30
2017-12-31T15:16:42.848Z,4.80
2017-12-31T15:19:10.321Z,4.70
2017-12-31T15:21:37.794Z,5.20
2017-12-31T15:24:05.242Z,4.60
2017-12-31T15:26:32.730Z,7.60
2017-12-31T15:29:00.180Z,8.60
2017-12-31T15:31:27.651Z,4.40
2017-12-31T15:33:55.131Z,6.07
2017-12-31T15:36:22.584Z,6.20
2017-12-31T15:38:50.032Z,5.20
2017-12-31T15:41:17.550Z,5.43
2017-12-31T15:43:45.003Z,5.80
2017-12-31T15:46:12.464Z,5.40
2017-12-31T15:48:40.023Z,5.13
2017-12-31T15:51:07.520Z,12.50
2017-12-31T15:53:34.996Z,4.73
2017-12-31T15:56:02.452Z,7.03
2017-12-31T15:58:29.913Z,7.90
2017-12-31T16:00:57.356Z,5.17
2017-12-31T16:03:24.825Z,8.33
2017-12-31T16:05:52.267Z,5.37
2017-12-31T16:08:19.738Z,10.33
2017-12-31T16:10:47.219Z,8.43
2017-12-31T16:13:14.676Z,5.73
2017-12-31T16:15:42.116Z,9.10
2017-12-31T16:18:09.591Z,9.90
2017-12-31T16:20:37.027Z,7.57
2017-12-31T16:23:04.499Z,10.03
2017-12-31T16:25:32.023Z,11.93
2017-12-31T16:27:59.463Z,8.90
2017-12-31T16:30:26.910Z,6.67
2017-12-31T16:32:54.380Z,9.83
2017-12-31T16:35:21.842Z,17.40
2017-12-31T16:37:49.303Z,8.33
2017-12-31T16:40:16.764Z,14.20
2017-12-31T16:42:44.209Z,8.87
2017-12-31T16:45:11.656Z,8.33
2017-12-31T16:47:39.121Z,10.50
2017-12-31T16:50:06.572Z,9.57
2017-12-31T16:52:34.045Z,12.27
2017-12-31T16:55:01.531Z,12.63
2017-12-31T16:57:29.006Z,11.77
2017-12-31T16:59:56.453Z,10.93
2017-12-31T17:02:23.935Z,11.83
2017-12-31T17:04:51.430Z,13.20
2017-12-31T17:07:18.889Z,11.53
2017-12-31T17:09:46.324Z,8.90
2017-12-31T17:12:13.768Z,9.20
2017-12-31T17:14:41.242Z,15.97
2017-12-31T17:17:08.712Z,16.40
2017-12-31T17:19:36.175Z,14.07
2017-12-31T17:22:03.642Z,16.70
2017-12-31T17:24:31.128Z,13.50
2017-12-31T17:26:58.595Z,18.40
2017-12-31T17:29:26.071Z,11.80
2017-12-31T17:31:53.524Z,10.00
2017-12-31T17:34:20.969Z,14.17
2017-12-31T17:36:48.439Z,8.80
2017-12-31T17:39:15.926Z,15.67
2017-12-31T17:41:43.396Z,16.97
2017-12-31T17:44:10.866Z,17.00
2017-12-31T17:46:38.328Z,15.93
2017-12-31T17:49:05.796Z,18.20
2017-12-31T17:51:33.245Z,19.57
2017-12-31T17:54:00.713Z,17.87
2017-12-31T17:56:28.200Z,29.90
2017-12-31T17:58:55.683Z,17.43
2017-12-31T18:01:23.141Z,16.97
2017-12-31T18:03:50.584Z,11.90
2017-12-31T18:06:18.058Z,16.00
2017-12-31T18:08:45.522Z,12.20
2017-12-31T18:11:13.007Z,13.50
2017-12-31T18:13:40.464Z,12.77
2017-12-31T18:16:07.930Z,16.53
2017-12-31T18:18:35.410Z,10.97
2017-12-31T18:21:02.875Z,14.70
2017-12-31T18:23:30.347Z,13.67
2017-12-31T18:25:57.854Z,17.87
2017-12-31T18:28:25.317Z,12.80
2017-12-31T18:30:52.800Z,14.03
2017-12-31T18:33:20.289Z,23.60
2017-12-31T18:35:47.758Z,17.47
2017-12-31T18:38:15.211Z,16.17
2017-12-31T18:40:42.698Z,24.20
2017-12-31T18:43:10.153Z,20.83
2017-12-31T18:45:37.622Z,27.93
2017-12-31T18:48:05.092Z,19.97
2017-12-31T18:50:32.565Z,21.63
2017-12-31T18:53:00.049Z,41.40
2017-12-31T18:55:27.512Z,19.93
2017-12-31T18:57:54.963Z,26.00
2017-12-31T19:00:22.442Z,23.10
2017-12-31T19:02:49.897Z,20.93
2017-12-31T19:05:17.372Z,33.37
2017-12-31T19:07:44.829Z,26.20
2017-12-31T19:10:12.296Z,22.43
2017-12-31T19:12:39.775Z,23.70
2017-12-31T19:15:07.234Z,30.20
2017-12-31T19:17:34.677Z,30.83
2017-12-31T19:20:02.159Z,26.23
2017-12-31T19:22:29.624Z,21.47
2017-12-31T19:24:57.098Z,28.37
2017-12-31T19:27:24.559Z,30.57
2017-12-31T19:29:52.021Z,26.17
2017-12-31T19:32:18.771Z,27.50
2017-12-31T19:34:46.236Z,27.57
2017-12-31T19:37:13.698Z,25.17
2017-12-31T19:39:41.151Z,23.00
2017-12-31T19:42:08.616Z,28.17
2017-12-31T19:44:36.087Z,26.63
2017-12-31T19:47:03.533Z,24.07
2017-12-31T19:49:31.007Z,28.13
2017-12-31T19:51:58.420Z,31.27
2017-12-31T19:54:25.900Z,36.50
2017-12-31T19:56:53.363Z,42.40
2017-12-31T19:59:20.778Z,38.80
2017-12-31T20:01:48.279Z,34.20
2017-12-31T20:04:15.749Z,154.00
2017-12-31T20:06:43.218Z,269.60
2017-12-31T20:09:10.750Z,146.47
2017-12-31T20:11:38.209Z,38.90
2017-12-31T20:14:05.671Z,24.73
2017-12-31T20:16:33.150Z,26.57
2017-12-31T20:19:00.611Z,37.30
2017-12-31T20:21:28.076Z,18.03
2017-12-31T20:23:55.554Z,15.10
2017-12-31T20:26:23.004Z,15.03
2017-12-31T20:28:50.464Z,14.37
2017-12-31T20:31:17.962Z,16.13
2017-12-31T20:33:45.437Z,16.00
2017-12-31T20:36:12.884Z,16.87
2017-12-31T20:38:40.362Z,16.63
2017-12-31T20:41:07.817Z,24.60
2017-12-31T20:43:35.282Z,20.60
2017-12-31T20:46:02.748Z,19.27
2017-12-31T20:48:30.192Z,15.63
2017-12-31T20:50:57.640Z,18.50
2017-12-31T20:53:25.133Z,16.83
2017-12-31T20:55:52.613Z,20.40
2017-12-31T20:58:20.086Z,20.90
2017-12-31T21:00:47.577Z,19.37
2017-12-31T21:03:15.073Z,16.20
2017-12-31T21:05:42.554Z,19.50
2017-12-31T21:08:10.016Z,20.53
2017-12-31T21:10:37.492Z,16.10
2017-12-31T21:13:04.965Z,18.10
2017-12-31T21:15:32.438Z,21.40
2017-12-31T21:17:59.911Z,17.93
2017-12-31T21:20:27.395Z,19.20
2017-12-31T21:22:54.843Z,18.50
2017-12-31T21:25:22.304Z,23.23
2017-12-31T21:27:49.786Z,20.80
2017-12-31T21:30:17.255Z,23.40
2017-12-31T21:32:44.712Z,20.30
2017-12-31T21:35:12.194Z,27.27
2017-12-31T21:37:39.659Z,24.90
2017-12-31T21:40:07.129Z,23.70
2017-12-31T21:42:34.580Z,21.90
2017-12-31T21:45:02.014Z,21.17
2017-12-31T21:47:29.509Z,23.57
2017-12-31T21:49:56.960Z,20.97
2017-12-31T21:52:24.412Z,22.07
2017-12-31T21:54:51.884Z,30.43
2017-12-31T21:57:19.333Z,36.60
2017-12-31T21:59:46.803Z,20.70
2017-12-31T22:02:14.279Z,24.73
2017-12-31T22:04:41.738Z,21.40
2017-12-31T22:07:09.189Z,20.03
2017-12-31T22:09:36.648Z,26.93
2017-12-31T22:12:04.102Z,25.63
2017-12-31T22:14:31.548Z,30.70
2017-12-31T22:16:59.032Z,25.90
2017-12-31T22:19:26.476Z,29.97
2017-12-31T22:21:53.919Z,22.93
2017-12-31T22:24:21.394Z,18.80
2017-12-31T22:26:48.846Z,25.20
2017-12-31T22:29:16.300Z,27.70
2017-12-31T22:31:43.786Z,17.87
2017-12-31T22:34:11.259Z,22.83
2017-12-31T22:36:38.707Z,18.40
2017-12-31T22:39:06.183Z,22.43
2017-12-31T22:41:33.650Z,16.93
2017-12-31T22:44:01.100Z,23.33
2017-12-31T22:46:28.560Z,21.90
2017-12-31T22:48:56.275Z,19.20
2017-12-31T22:51:23.743Z,25.80
2017-12-31T22:53:51.231Z,42.27
2017-12-31T22:56:18.676Z,40.10
2017-12-31T22:58:46.120Z,42.70
2017-12-31T23:01:13.602Z,28.07
2017-12-31T23:03:41.067Z,44.73
2017-12-31T23:06:08.517Z,74.57
2017-12-31T23:08:35.991Z,122.57
2017-12-31T23:11:03.504Z,181.13
2017-12-31T23:13:30.960Z,113.77
2017-12-31T23:15:58.433Z,169.97
2017-12-31T23:18:25.896Z,230.17
2017-12-31T23:20:53.348Z,271.30
2017-12-31T23:23:20.843Z,314.03
2017-12-31T23:25:48.317Z,367.93
2017-12-31T23:28:15.780Z,412.63
2017-12-31T23:30:43.260Z,422.20
2017-12-31T23:33:10.724Z,395.00
2017-12-31T23:35:38.202Z,377.33
2017-12-31T23:38:05.703Z,297.17
2017-12-31T23:40:33.183Z,284.43
2017-12-31T23:43:00.646Z,241.47
2017-12-31T23:45:28.115Z,205.27
2017-12-31T23:47:55.587Z,173.53
2017-12-31T23:50:23.044Z,223.00
2017-12-31T23:52:50.526Z,156.90
2017-12-31T23:55:17.999Z,120.23
2017-12-31T23:57:45.475Z,106.90
